地図

経路データ

SID SEASON NUMBER BASIN SUBBASIN NAME ISO_TIME NATURE LAT LON WMO_WIND WMO_PRES WMO_AGENCY TRACK_TYPE DIST2LAND LANDFALL IFLAG USA_AGENCY USA_ATCF_ID USA_LAT USA_LON USA_RECORD USA_STATUS USA_WIND USA_PRES USA_SSHS USA_R34_NE USA_R34_SE USA_R34_SW USA_R34_NW USA_R50_NE USA_R50_SE USA_R50_SW USA_R50_NW USA_R64_NE USA_R64_SE USA_R64_SW USA_R64_NW USA_POCI USA_ROCI USA_RMW USA_EYE TOKYO_LAT TOKYO_LON TOKYO_GRADE TOKYO_WIND TOKYO_PRES TOKYO_R50_DIR TOKYO_R50_LONG TOKYO_R50_SHORT TOKYO_R30_DIR TOKYO_R30_LONG TOKYO_R30_SHORT TOKYO_LAND CMA_LAT CMA_LON CMA_CAT CMA_WIND CMA_PRES HKO_LAT HKO_LON HKO_CAT HKO_WIND HKO_PRES NEWDELHI_LAT NEWDELHI_LON NEWDELHI_GRADE NEWDELHI_WIND NEWDELHI_PRES NEWDELHI_CI NEWDELHI_DP NEWDELHI_POCI REUNION_LAT REUNION_LON REUNION_TYPE REUNION_WIND REUNION_PRES REUNION_TNUM REUNION_CI REUNION_RMW REUNION_R34_NE REUNION_R34_SE REUNION_R34_SW REUNION_R34_NW REUNION_R50_NE REUNION_R50_SE REUNION_R50_SW REUNION_R50_NW REUNION_R64_NE REUNION_R64_SE REUNION_R64_SW REUNION_R64_NW BOM_LAT BOM_LON BOM_TYPE BOM_WIND BOM_PRES BOM_TNUM BOM_CI BOM_RMW BOM_R34_NE BOM_R34_SE BOM_R34_SW BOM_R34_NW BOM_R50_NE BOM_R50_SE BOM_R50_SW BOM_R50_NW BOM_R64_NE BOM_R64_SE BOM_R64_SW BOM_R64_NW BOM_ROCI BOM_POCI BOM_EYE BOM_POS_METHOD BOM_PRES_METHOD NADI_LAT NADI_LON NADI_CAT NADI_WIND NADI_PRES WELLINGTON_LAT WELLINGTON_LON WELLINGTON_WIND WELLINGTON_PRES DS824_LAT DS824_LON DS824_STAGE DS824_WIND DS824_PRES TD9636_LAT TD9636_LON TD9636_STAGE TD9636_WIND TD9636_PRES TD9635_LAT TD9635_LON TD9635_WIND TD9635_PRES TD9635_ROCI NEUMANN_LAT NEUMANN_LON NEUMANN_CLASS NEUMANN_WIND NEUMANN_PRES MLC_LAT MLC_LON MLC_CLASS MLC_WIND MLC_PRES USA_GUST BOM_GUST BOM_GUST_PER REUNION_GUST REUNION_GUST_PER USA_SEAHGT USA_SEARAD_NE USA_SEARAD_SE USA_SEARAD_SW USA_SEARAD_NW STORM_SPEED STORM_DIR
1962042S17128 1962 16 SI WA NOT_NAMED 1962-02-10 23:00:00 NR -17.3000 128.200 main 0 0 __________O___ -1 -17.3000 128.200 1 5 269
1962042S17128 1962 16 SI WA NOT_NAMED 1962-02-11 00:00:00 TS -17.3022 128.106 main 0 0 O________OP___ jtwc_sh SH141962 -17.3000 128.100 -1 -17.3000 128.100 TC -17.3045 128.112 1 5 269
1962042S17128 1962 16 SI WA NOT_NAMED 1962-02-11 03:00:00 TS -17.3054 127.854 main 0 0 P________PP___ SH141962 -17.2975 127.860 -1 -17.2975 127.860 TC -17.3160 127.845 1 5 269
1962042S17128 1962 16 SI WA NOT_NAMED 1962-02-11 06:00:00 TS -17.3082 127.590 main 0 0 O________OP___ jtwc_sh SH141962 -17.3000 127.600 -1 -17.3000 127.600 TC -17.3206 127.574 1 5 270
1962042S17128 1962 16 SI WA NOT_NAMED 1962-02-11 09:00:00 TS -17.3095 127.303 main 0 0 P________PP___ SH141962 -17.3075 127.308 -1 -17.3075 127.308 TC -17.3136 127.294 1 6 271
1962042S17128 1962 16 SI WA NOT_NAMED 1962-02-11 11:00:00 TS -17.3038 127.102 main 0 0 P________PO___ SH141962 -17.3057 127.103 -1 -17.3057 127.103 TC -17.3000 127.100 1 6 273
1962042S17128 1962 16 SI WA NOT_NAMED 1962-02-11 12:00:00 TS -17.2967 127.000 main 0 0 O________OP___ jtwc_sh SH141962 -17.3000 127.000 -1 -17.3000 127.000 TC -17.2901 127.001 1 6 278
1962042S17128 1962 16 SI WA NOT_NAMED 1962-02-11 15:00:00 TS -17.2510 126.695 main 0 0 P________PP___ SH141962 -17.2500 126.692 -1 -17.2500 126.692 TC -17.2530 126.701 1 6 279
1962042S17128 1962 16 SI WA NOT_NAMED 1962-02-11 18:00:00 TS -17.2055 126.403 main 0 0 O________OP___ jtwc_sh SH141962 -17.2000 126.400 -1 -17.2000 126.400 TC -17.2166 126.410 1 5 277
1962042S17128 1962 16 SI WA NOT_NAMED 1962-02-11 21:00:00 TS -17.1888 126.130 main 0 0 P________PP___ SH141962 -17.1850 126.120 -1 -17.1850 126.120 TC -17.1965 126.149 1 5 272
1962042S17128 1962 16 SI WA NOT_NAMED 1962-02-11 23:00:00 TS -17.1944 125.976 main 0 0 P________PO___ SH141962 -17.1917 125.964 -1 -17.1917 125.964 TC -17.2000 126.000 1 4 266
1962042S17128 1962 16 SI WA NOT_NAMED 1962-02-12 00:00:00 TS -17.2034 125.913 main 0 0 O________OP___ jtwc_sh SH141962 -17.2000 125.900 -1 -17.2000 125.900 TC -17.2103 125.938 1 3 255
1962042S17128 1962 16 SI WA NOT_NAMED 1962-02-12 03:00:00 TS -17.2442 125.780 main 0 0 P________PP___ SH141962 -17.2349 125.777 -1 -17.2349 125.777 TC -17.2627 125.786 1 2 243
1962042S17128 1962 16 SI WA NOT_NAMED 1962-02-12 06:00:00 TS -17.3134 125.690 main 0 0 O________OP___ jtwc_sh SH141962 -17.3000 125.700 -1 -17.3000 125.700 TC -17.3403 125.669 1 2 229
1962042S17128 1962 16 SI WA NOT_NAMED 1962-02-12 09:00:00 TS -17.4012 125.594 main 0 0 P________PP___ SH141962 -17.3850 125.607 -1 -17.3850 125.607 TC -17.4337 125.568 1 3 225
1962042S17128 1962 16 SI WA NOT_NAMED 1962-02-12 11:00:00 TS -17.4722 125.526 main 0 0 P________PO___ SH141962 -17.4583 125.539 -1 -17.4583 125.539 TC -17.5000 125.500 1 3 224
1962042S17128 1962 16 SI WA NOT_NAMED 1962-02-12 12:00:00 TS -17.5112 125.486 main 0 0 O________OP___ jtwc_sh SH141962 -17.5000 125.500 -1 -17.5000 125.500 TC -17.5337 125.457 1 4 225
1962042S17128 1962 16 SI WA NOT_NAMED 1962-02-12 15:00:00 TS -17.6523 125.343 main 0 0 P________PP___ SH141962 -17.6575 125.350 -1 -17.6575 125.350 TC -17.6417 125.328 1 4 225
1962042S17128 1962 16 SI WA NOT_NAMED 1962-02-12 18:00:00 TS -17.7835 125.200 main 0 0 O________OP___ jtwc_sh SH141962 -17.8000 125.200 -1 -17.8000 125.200 TC -17.7506 125.200 1 3 230
1962042S17128 1962 16 SI WA NOT_NAMED 1962-02-12 21:00:00 TS -17.8593 125.088 main 0 0 P________PP___ SH141962 -17.8650 125.092 -1 -17.8650 125.092 TC -17.8478 125.078 1 2 238
1962042S17128 1962 16 SI WA NOT_NAMED 1962-02-12 23:00:00 TS -17.8924 125.020 main 0 0 P________PO___ SH141962 -17.8886 125.031 -1 -17.8886 125.031 TC -17.9000 125.000 1 2 243
1962042S17128 1962 16 SI WA NOT_NAMED 1962-02-13 00:00:00 TS -17.9065 124.989 main 0 0 O________OP___ jtwc_sh SH141962 -17.9000 125.000 -1 -17.9000 125.000 TC -17.9196 124.966 1 2 242
1962042S17128 1962 16 SI WA NOT_NAMED 1962-02-13 03:00:00 TS -17.9591 124.890 main 0 0 P________PP___ SH141962 -17.9575 124.900 -1 -17.9575 124.900 TC -17.9624 124.870 1 2 244
1962042S17128 1962 16 SI WA NOT_NAMED 1962-02-13 06:00:00 TS -17.9954 124.792 main 0 0 O________OP___ jtwc_sh SH141962 -18.0000 124.800 -1 -18.0000 124.800 TC -17.9861 124.776 1 2 256
1962042S17128 1962 16 SI WA NOT_NAMED 1962-02-13 09:00:00 TS -18.0039 124.697 main 0 0 P________PP___ SH141962 -18.0075 124.707 -1 -18.0075 124.707 TC -17.9969 124.675 1 2 268
1962042S17128 1962 16 SI WA NOT_NAMED 1962-02-13 11:00:00 TS -18.0017 124.626 main 0 0 P________PO___ SH141962 -18.0026 124.639 -1 -18.0026 124.639 TC -18.0000 124.600 1 2 272
1962042S17128 1962 16 SI WA NOT_NAMED 1962-02-13 12:00:00 TS -17.9999 124.586 main 0 0 O________OP___ jtwc_sh SH141962 -18.0000 124.600 -1 -18.0000 124.600 TC -17.9996 124.559 1 2 272
1962042S17128 1962 16 SI WA NOT_NAMED 1962-02-13 15:00:00 TS -17.9972 124.452 main 0 0 P________PP___ SH141962 -18.0000 124.465 -1 -18.0000 124.465 TC -17.9916 124.427 1 3 271
1962042S17128 1962 16 SI WA NOT_NAMED 1962-02-13 18:00:00 TS -17.9942 124.293 main 0 0 O________OP___ jtwc_sh SH141962 -18.0000 124.300 -1 -18.0000 124.300 TC -17.9826 124.279 1 3 271
1962042S17128 1962 16 SI WA NOT_NAMED 1962-02-13 21:00:00 TS -17.9901 124.111 main 0 0 P________PP___ SH141962 -17.9925 124.107 -1 -17.9925 124.107 TC -17.9854 124.117 1 4 270
1962042S17128 1962 16 SI WA NOT_NAMED 1962-02-13 23:00:00 TS -17.9962 123.980 main 0 0 P________PO___ SH141962 -17.9943 123.969 -1 -17.9943 123.969 TC -18.0000 124.000 1 4 266
1962042S17128 1962 16 SI WA NOT_NAMED 1962-02-14 00:00:00 TS -18.0042 123.914 main 0 0 O________OP___ jtwc_sh SH141962 -18.0000 123.900 -1 -18.0000 123.900 TC -18.0125 123.941 1 4 259
1962042S17128 1962 16 SI WA NOT_NAMED 1962-02-14 03:00:00 TS -18.0451 123.718 main 0 0 P________PP___ SH141962 -18.0350 123.700 -1 -18.0350 123.700 TC -18.0654 123.755 1 4 254
1962042S17128 1962 16 SI WA NOT_NAMED 1962-02-14 06:00:00 TS -18.1131 123.518 main 0 0 O________OP___ jtwc_sh SH141962 -18.1000 123.500 -1 -18.1000 123.500 TC -18.1392 123.554 1 4 250
1962042S17128 1962 16 SI WA NOT_NAMED 1962-02-14 07:00:00 TS -18.1393 123.451 main 0 0 P________PP___ SH141962 -18.1250 123.433 -1 -18.1250 123.433 TC -18.1679 123.485 1 4 246
1962042S17128 1962 16 SI WA NOT_NAMED 1962-02-14 09:00:00 TS -18.2002 123.315 main 0 0 P________PP___ SH141962 -18.1850 123.300 -1 -18.1850 123.300 TC -18.2307 123.344 1 4 244
1962042S17128 1962 16 SI WA NOT_NAMED 1962-02-14 10:00:00 TS -18.2348 123.246 main 0 0 P________PP___ SH141962 -18.2200 123.233 -1 -18.2200 123.233 TC -18.2646 123.272 1 4 241
1962042S17128 1962 16 SI WA NOT_NAMED 1962-02-14 11:00:00 TS -18.2722 123.178 main 0 0 P________PO___ SH141962 -18.2583 123.167 -1 -18.2583 123.167 TC -18.3000 123.200 1 4 239
1962042S17128 1962 16 SI WA NOT_NAMED 1962-02-14 12:00:00 TS -18.3116 123.112 main 0 0 O________OP___ jtwc_sh SH141962 -18.3000 123.100 -1 -18.3000 123.100 TC -18.3349 123.136 1 5 234
1962042S17128 1962 16 SI WA NOT_NAMED 1962-02-14 15:00:00 TS -18.4501 122.918 main 0 0 P________PP___ SH141962 -18.4500 122.908 -1 -18.4500 122.908 TC -18.4505 122.940 1 5 233
1962042S17128 1962 16 SI WA NOT_NAMED 1962-02-14 16:00:00 TS -18.4989 122.852 main 0 0 P________PP___ SH141962 -18.5024 122.841 -1 -18.5024 122.841 TC -18.4920 122.872 1 5 234
1962042S17128 1962 16 SI WA NOT_NAMED 1962-02-14 18:00:00 TS -18.5927 122.710 main 0 0 O________OP___ jtwc_sh SH141962 -18.6000 122.700 -1 -18.6000 122.700 TC -18.5780 122.729 1 5 240
1962042S17128 1962 16 SI WA NOT_NAMED 1962-02-14 21:00:00 TS -18.7037 122.477 main 0 0 P________PP___ SH141962 -18.6999 122.472 -1 -18.6999 122.472 TC -18.7111 122.487 1 5 245
1962042S17128 1962 16 SI WA NOT_NAMED 1962-02-14 23:00:00 TS -18.7757 122.298 main 0 0 P________PO___ SH141962 -18.7635 122.297 -1 -18.7635 122.297 TC -18.8000 122.300 1 6 247
1962042S17128 1962 16 SI WA NOT_NAMED 1962-02-15 00:00:00 TS -18.8164 122.199 main 0 0 O________OP___ jtwc_sh SH141962 -18.8000 122.200 -1 -18.8000 122.200 TC -18.8491 122.196 1 7 245
1962042S17128 1962 16 SI WA NOT_NAMED 1962-02-15 03:00:00 TS -18.9664 121.866 main 0 0 P________PP___ SH141962 -18.9500 121.873 -1 -18.9500 121.873 TC -18.9993 121.853 1 7 246
1962042S17128 1962 16 SI WA NOT_NAMED 1962-02-15 06:00:00 TS -19.1132 121.491 main 0 0 O________OP___ jtwc_sh SH141962 -19.1000 121.500 -1 -19.1000 121.500 TC -19.1395 121.473 1 8 248
1962042S17128 1962 16 SI WA NOT_NAMED 1962-02-15 07:00:00 TS -19.1582 121.362 main 0 0 P________PP___ SH141962 -19.1469 121.372 -1 -19.1469 121.372 TC -19.1808 121.341 1 8 252
1962042S17128 1962 16 SI WA NOT_NAMED 1962-02-15 09:00:00 TS -19.2369 121.096 main 23 23 P________PP___ SH141962 -19.2300 121.108 -1 -19.2300 121.108 TC -19.2509 121.072 1 8 255
1962042S17128 1962 16 SI WA NOT_NAMED 1962-02-15 11:00:00 TS -19.2909 120.824 main 35 35 P________PO___ SH141962 -19.2864 120.836 -1 -19.2864 120.836 TC -19.3000 120.800 1 8 260
1962042S17128 1962 16 SI WA NOT_NAMED 1962-02-15 12:00:00 TS -19.3014 120.694 main 39 39 O________OP___ jtwc_sh SH141962 -19.3000 120.700 -1 -19.3000 120.700 TC -19.3041 120.681 1 7 272
1962042S17128 1962 16 SI WA NOT_NAMED 1962-02-15 15:00:00 TS -19.2701 120.312 main 59 59 P________PP___ SH141962 -19.2649 120.307 -1 -19.2649 120.307 TC -19.2804 120.322 1 7 277
1962042S17128 1962 16 SI WA NOT_NAMED 1962-02-15 18:00:00 TS -19.2108 119.915 main 84 84 O________OP___ jtwc_sh SH141962 -19.2000 119.900 -1 -19.2000 119.900 TC -19.2322 119.943 1 8 277
1962042S17128 1962 16 SI WA NOT_NAMED 1962-02-15 21:00:00 TS -19.1790 119.493 main 94 94 P________PP___ SH141962 -19.1698 119.480 -1 -19.1698 119.480 TC -19.1973 119.520 1 8 272
1962042S17128 1962 16 SI WA NOT_NAMED 1962-02-15 23:00:00 TS -19.1867 119.180 main 100 100 P________PO___ SH141962 -19.1801 119.170 -1 -19.1801 119.170 TC -19.2000 119.200 2 9 266
1962042S17128 1962 16 SI WA NOT_NAMED 1962-02-16 00:00:00 TS -19.2072 119.008 main 101 94 O________OP___ jtwc_sh SH141962 -19.2000 119.000 -1 -19.2000 119.000 TC -19.2129 119.026 2 11 258
1962042S17128 1962 16 SI WA NOT_NAMED 1962-02-16 03:00:00 TS -19.3297 118.437 main 115 102 P________PP___ SH141962 -19.3230 118.428 -1 -19.3230 118.428 TC -19.2947 118.455 2 12 256
1962042S17128 1962 16 SI WA NOT_NAMED 1962-02-16 06:00:00 TS -19.4840 117.806 main 105 105 O________OP___ jtwc_sh SH141962 -19.5000 117.800 -1 -19.5000 117.800 TC -19.4257 117.824 2 12 256
1962042S17128 1962 16 SI WA NOT_NAMED 1962-02-16 07:00:00 TS -19.5244 117.596 main 113 108 __________P___ SH141962 -1 TC -19.4768 117.605 2 12 259
1962042S17128 1962 16 SI WA NOT_NAMED 1962-02-16 09:00:00 TS -19.6001 117.165 main 119 100 __________P___ SH141962 -1 TC -19.5862 117.156 2 13 260
1962042S17128 1962 16 SI WA NOT_NAMED 1962-02-16 11:00:00 TS -19.6756 116.720 main 100 __________O___ SH141962 -1 TC -19.7000 116.700 1 13 260

IBTrACS Databaseについて

本データベースは、米国NOAAが公開する1842年以降の世界の熱帯低気圧のベストトラックデータアーカイブInternational Best Track Archive for Climate Stewardship (IBTrACS)を、ウェブで閲覧しやすい形式に変換したものです。

最終更新日:2021-11-26